sensor_id;sensor_type;location;lat;lon;timestamp;P1;durP1;ratioP1;P2;durP2;ratioP2
36321;SDS011;23564;48.290;11.460;2023-06-14T00:00:19;6.07;;;4.07;;
36321;SDS011;23564;48.290;11.460;2023-06-14T00:02:45;8.82;;;4.57;;
36321;SDS011;23564;48.290;11.460;2023-06-14T00:05:11;9.95;;;4.40;;
36321;SDS011;23564;48.290;11.460;2023-06-14T00:07:38;7.88;;;4.22;;
36321;SDS011;23564;48.290;11.460;2023-06-14T00:10:08;6.90;;;4.38;;
36321;SDS011;23564;48.290;11.460;2023-06-14T00:12:35;10.43;;;4.10;;
36321;SDS011;23564;48.290;11.460;2023-06-14T00:15:01;10.48;;;4.28;;
36321;SDS011;23564;48.290;11.460;2023-06-14T00:17:27;7.35;;;4.05;;
36321;SDS011;23564;48.290;11.460;2023-06-14T00:19:56;9.55;;;4.60;;
36321;SDS011;23564;48.290;11.460;2023-06-14T00:22:23;7.55;;;4.63;;
36321;SDS011;23564;48.290;11.460;2023-06-14T00:24:49;7.80;;;4.43;;
36321;SDS011;23564;48.290;11.460;2023-06-14T00:27:15;7.72;;;4.07;;
36321;SDS011;23564;48.290;11.460;2023-06-14T00:29:41;6.57;;;4.03;;
36321;SDS011;23564;48.290;11.460;2023-06-14T00:32:07;11.48;;;4.43;;
36321;SDS011;23564;48.290;11.460;2023-06-14T00:34:33;13.48;;;4.25;;
36321;SDS011;23564;48.290;11.460;2023-06-14T00:36:59;9.20;;;4.20;;
36321;SDS011;23564;48.290;11.460;2023-06-14T00:39:24;7.53;;;4.35;;
36321;SDS011;23564;48.290;11.460;2023-06-14T00:41:50;8.60;;;4.38;;
36321;SDS011;23564;48.290;11.460;2023-06-14T00:44:16;8.15;;;4.25;;
36321;SDS011;23564;48.290;11.460;2023-06-14T00:46:42;8.02;;;4.20;;
36321;SDS011;23564;48.290;11.460;2023-06-14T00:49:09;7.47;;;4.20;;
36321;SDS011;23564;48.290;11.460;2023-06-14T00:51:35;9.50;;;4.47;;
36321;SDS011;23564;48.290;11.460;2023-06-14T00:54:02;9.40;;;4.45;;
36321;SDS011;23564;48.290;11.460;2023-06-14T00:56:28;14.02;;;4.20;;
36321;SDS011;23564;48.290;11.460;2023-06-14T00:58:55;9.38;;;4.53;;
36321;SDS011;23564;48.290;11.460;2023-06-14T01:01:21;7.90;;;4.22;;
36321;SDS011;23564;48.290;11.460;2023-06-14T01:03:47;7.80;;;4.15;;
36321;SDS011;23564;48.290;11.460;2023-06-14T01:06:15;9.70;;;4.53;;
36321;SDS011;23564;48.290;11.460;2023-06-14T01:08:52;5.60;;;3.95;;
36321;SDS011;23564;48.290;11.460;2023-06-14T01:11:26;7.90;;;4.00;;
36321;SDS011;23564;48.290;11.460;2023-06-14T01:13:56;12.15;;;4.07;;
36321;SDS011;23564;48.290;11.460;2023-06-14T01:16:24;6.05;;;3.92;;
36321;SDS011;23564;48.290;11.460;2023-06-14T01:18:51;8.80;;;4.10;;
36321;SDS011;23564;48.290;11.460;2023-06-14T01:21:24;10.25;;;4.30;;
36321;SDS011;23564;48.290;11.460;2023-06-14T01:23:51;9.65;;;4.00;;
36321;SDS011;23564;48.290;11.460;2023-06-14T01:26:21;9.20;;;4.53;;
36321;SDS011;23564;48.290;11.460;2023-06-14T01:28:48;9.88;;;4.72;;
36321;SDS011;23564;48.290;11.460;2023-06-14T01:31:19;7.18;;;4.05;;
36321;SDS011;23564;48.290;11.460;2023-06-14T01:33:46;5.90;;;4.00;;
36321;SDS011;23564;48.290;11.460;2023-06-14T01:36:14;6.72;;;4.28;;
36321;SDS011;23564;48.290;11.460;2023-06-14T01:38:41;17.55;;;4.60;;
36321;SDS011;23564;48.290;11.460;2023-06-14T01:41:09;14.27;;;4.18;;
36321;SDS011;23564;48.290;11.460;2023-06-14T01:43:35;7.30;;;4.13;;
36321;SDS011;23564;48.290;11.460;2023-06-14T01:46:01;7.65;;;4.15;;
36321;SDS011;23564;48.290;11.460;2023-06-14T01:48:28;7.22;;;4.30;;
36321;SDS011;23564;48.290;11.460;2023-06-14T01:50:53;6.78;;;4.38;;
36321;SDS011;23564;48.290;11.460;2023-06-14T01:53:19;8.00;;;4.75;;
36321;SDS011;23564;48.290;11.460;2023-06-14T01:55:45;6.28;;;3.88;;
36321;SDS011;23564;48.290;11.460;2023-06-14T01:58:13;7.35;;;4.13;;
36321;SDS011;23564;48.290;11.460;2023-06-14T02:00:41;6.28;;;4.00;;
36321;SDS011;23564;48.290;11.460;2023-06-14T02:03:08;7.95;;;3.50;;
36321;SDS011;23564;48.290;11.460;2023-06-14T02:05:33;8.20;;;4.18;;
36321;SDS011;23564;48.290;11.460;2023-06-14T02:07:59;10.02;;;4.55;;
36321;SDS011;23564;48.290;11.460;2023-06-14T02:10:25;7.65;;;4.50;;
36321;SDS011;23564;48.290;11.460;2023-06-14T02:12:51;9.77;;;4.93;;
36321;SDS011;23564;48.290;11.460;2023-06-14T02:15:16;7.65;;;4.35;;
36321;SDS011;23564;48.290;11.460;2023-06-14T02:17:43;6.72;;;4.75;;
36321;SDS011;23564;48.290;11.460;2023-06-14T02:20:09;7.55;;;4.35;;
36321;SDS011;23564;48.290;11.460;2023-06-14T02:22:36;7.70;;;4.38;;
36321;SDS011;23564;48.290;11.460;2023-06-14T02:25:01;7.78;;;4.53;;
36321;SDS011;23564;48.290;11.460;2023-06-14T02:27:27;7.45;;;4.32;;
36321;SDS011;23564;48.290;11.460;2023-06-14T02:29:52;9.68;;;4.70;;
36321;SDS011;23564;48.290;11.460;2023-06-14T02:32:18;7.35;;;4.88;;
36321;SDS011;23564;48.290;11.460;2023-06-14T02:34:43;6.22;;;4.20;;
36321;SDS011;23564;48.290;11.460;2023-06-14T02:37:09;6.93;;;4.30;;
36321;SDS011;23564;48.290;11.460;2023-06-14T02:39:36;10.38;;;4.60;;
36321;SDS011;23564;48.290;11.460;2023-06-14T02:42:01;7.47;;;4.63;;
36321;SDS011;23564;48.290;11.460;2023-06-14T02:44:27;8.02;;;5.05;;
36321;SDS011;23564;48.290;11.460;2023-06-14T02:46:53;7.78;;;5.03;;
36321;SDS011;23564;48.290;11.460;2023-06-14T02:49:20;9.07;;;5.10;;
36321;SDS011;23564;48.290;11.460;2023-06-14T02:51:46;6.63;;;4.60;;
36321;SDS011;23564;48.290;11.460;2023-06-14T02:54:12;11.63;;;5.00;;
36321;SDS011;23564;48.290;11.460;2023-06-14T02:56:38;10.25;;;5.00;;
36321;SDS011;23564;48.290;11.460;2023-06-14T02:59:04;7.80;;;4.82;;
36321;SDS011;23564;48.290;11.460;2023-06-14T03:01:29;8.63;;;5.20;;
36321;SDS011;23564;48.290;11.460;2023-06-14T03:03:58;7.75;;;4.80;;
36321;SDS011;23564;48.290;11.460;2023-06-14T03:06:24;9.18;;;4.60;;
36321;SDS011;23564;48.290;11.460;2023-06-14T03:08:50;10.48;;;5.25;;
36321;SDS011;23564;48.290;11.460;2023-06-14T03:11:16;8.30;;;4.43;;
36321;SDS011;23564;48.290;11.460;2023-06-14T03:13:45;8.80;;;5.40;;
36321;SDS011;23564;48.290;11.460;2023-06-14T03:16:11;8.00;;;4.30;;
36321;SDS011;23564;48.290;11.460;2023-06-14T03:18:37;10.57;;;4.85;;
36321;SDS011;23564;48.290;11.460;2023-06-14T03:21:03;9.80;;;5.00;;
36321;SDS011;23564;48.290;11.460;2023-06-14T03:23:30;12.43;;;4.93;;
36321;SDS011;23564;48.290;11.460;2023-06-14T03:25:56;9.23;;;4.95;;
36321;SDS011;23564;48.290;11.460;2023-06-14T03:28:22;9.68;;;4.80;;
36321;SDS011;23564;48.290;11.460;2023-06-14T03:30:47;6.97;;;5.18;;
36321;SDS011;23564;48.290;11.460;2023-06-14T03:33:13;7.22;;;5.18;;
36321;SDS011;23564;48.290;11.460;2023-06-14T03:35:38;6.80;;;5.05;;
36321;SDS011;23564;48.290;11.460;2023-06-14T03:38:04;9.35;;;4.95;;
36321;SDS011;23564;48.290;11.460;2023-06-14T03:40:30;8.40;;;4.53;;
36321;SDS011;23564;48.290;11.460;2023-06-14T03:42:56;12.55;;;5.00;;
36321;SDS011;23564;48.290;11.460;2023-06-14T03:45:21;10.65;;;5.35;;
36321;SDS011;23564;48.290;11.460;2023-06-14T03:47:47;9.30;;;4.85;;
36321;SDS011;23564;48.290;11.460;2023-06-14T03:50:13;10.57;;;4.57;;
36321;SDS011;23564;48.290;11.460;2023-06-14T03:52:38;7.57;;;5.07;;
36321;SDS011;23564;48.290;11.460;2023-06-14T03:55:05;7.65;;;5.05;;
36321;SDS011;23564;48.290;11.460;2023-06-14T03:57:31;9.63;;;5.47;;
36321;SDS011;23564;48.290;11.460;2023-06-14T03:59:56;8.75;;;4.82;;
36321;SDS011;23564;48.290;11.460;2023-06-14T04:02:22;12.30;;;6.15;;
36321;SDS011;23564;48.290;11.460;2023-06-14T04:04:48;10.90;;;5.05;;
36321;SDS011;23564;48.290;11.460;2023-06-14T04:07:14;11.13;;;5.28;;
36321;SDS011;23564;48.290;11.460;2023-06-14T04:09:40;7.90;;;5.10;;
36321;SDS011;23564;48.290;11.460;2023-06-14T04:12:06;10.38;;;5.03;;
36321;SDS011;23564;48.290;11.460;2023-06-14T04:14:34;8.57;;;5.00;;
36321;SDS011;23564;48.290;11.460;2023-06-14T04:16:59;8.63;;;5.50;;
36321;SDS011;23564;48.290;11.460;2023-06-14T04:19:25;11.18;;;5.50;;
36321;SDS011;23564;48.290;11.460;2023-06-14T04:21:51;9.82;;;4.45;;
36321;SDS011;23564;48.290;11.460;2023-06-14T04:24:17;10.77;;;5.95;;
36321;SDS011;23564;48.290;11.460;2023-06-14T04:26:43;9.35;;;5.15;;
36321;SDS011;23564;48.290;11.460;2023-06-14T04:29:18;6.68;;;4.47;;
36321;SDS011;23564;48.290;11.460;2023-06-14T04:31:44;6.85;;;5.25;;
36321;SDS011;23564;48.290;11.460;2023-06-14T04:34:11;8.32;;;5.20;;
36321;SDS011;23564;48.290;11.460;2023-06-14T04:36:46;9.85;;;5.50;;
36321;SDS011;23564;48.290;11.460;2023-06-14T04:39:18;9.03;;;5.33;;
36321;SDS011;23564;48.290;11.460;2023-06-14T04:41:48;7.50;;;5.53;;
36321;SDS011;23564;48.290;11.460;2023-06-14T04:44:18;10.68;;;5.63;;
36321;SDS011;23564;48.290;11.460;2023-06-14T04:46:45;13.25;;;5.80;;
36321;SDS011;23564;48.290;11.460;2023-06-14T04:49:17;10.60;;;5.57;;
36321;SDS011;23564;48.290;11.460;2023-06-14T04:51:43;10.18;;;5.65;;
36321;SDS011;23564;48.290;11.460;2023-06-14T04:54:10;8.95;;;5.10;;
36321;SDS011;23564;48.290;11.460;2023-06-14T04:56:40;9.13;;;5.95;;
36321;SDS011;23564;48.290;11.460;2023-06-14T04:59:07;8.77;;;5.70;;
36321;SDS011;23564;48.290;11.460;2023-06-14T05:01:33;10.23;;;5.60;;
36321;SDS011;23564;48.290;11.460;2023-06-14T05:03:59;7.38;;;5.45;;
36321;SDS011;23564;48.290;11.460;2023-06-14T05:06:25;10.50;;;5.20;;
36321;SDS011;23564;48.290;11.460;2023-06-14T05:08:56;9.40;;;5.15;;
36321;SDS011;23564;48.290;11.460;2023-06-14T05:11:22;11.57;;;5.82;;
36321;SDS011;23564;48.290;11.460;2023-06-14T05:13:49;8.27;;;5.13;;
36321;SDS011;23564;48.290;11.460;2023-06-14T05:16:15;9.80;;;6.10;;
36321;SDS011;23564;48.290;11.460;2023-06-14T05:18:44;8.68;;;5.68;;
36321;SDS011;23564;48.290;11.460;2023-06-14T05:21:10;12.68;;;5.80;;
36321;SDS011;23564;48.290;11.460;2023-06-14T05:23:36;9.80;;;5.53;;
36321;SDS011;23564;48.290;11.460;2023-06-14T05:26:02;11.38;;;5.50;;
36321;SDS011;23564;48.290;11.460;2023-06-14T05:28:29;8.75;;;5.20;;
36321;SDS011;23564;48.290;11.460;2023-06-14T05:30:55;8.10;;;5.22;;
36321;SDS011;23564;48.290;11.460;2023-06-14T05:33:21;12.68;;;4.82;;
36321;SDS011;23564;48.290;11.460;2023-06-14T05:35:47;10.77;;;5.88;;
36321;SDS011;23564;48.290;11.460;2023-06-14T05:38:12;8.48;;;4.95;;
36321;SDS011;23564;48.290;11.460;2023-06-14T05:40:38;9.32;;;4.93;;
36321;SDS011;23564;48.290;11.460;2023-06-14T05:43:03;8.68;;;4.80;;
36321;SDS011;23564;48.290;11.460;2023-06-14T05:45:29;9.85;;;4.70;;
36321;SDS011;23564;48.290;11.460;2023-06-14T05:47:54;13.65;;;5.05;;
36321;SDS011;23564;48.290;11.460;2023-06-14T05:50:20;7.75;;;4.72;;
36321;SDS011;23564;48.290;11.460;2023-06-14T05:52:46;10.90;;;4.18;;
36321;SDS011;23564;48.290;11.460;2023-06-14T05:55:12;7.32;;;4.80;;
36321;SDS011;23564;48.290;11.460;2023-06-14T05:57:37;6.82;;;4.40;;
36321;SDS011;23564;48.290;11.460;2023-06-14T06:00:03;14.40;;;5.15;;
36321;SDS011;23564;48.290;11.460;2023-06-14T06:02:40;13.40;;;5.00;;
36321;SDS011;23564;48.290;11.460;2023-06-14T06:05:08;9.15;;;5.20;;
36321;SDS011;23564;48.290;11.460;2023-06-14T06:07:34;8.98;;;4.82;;
36321;SDS011;23564;48.290;11.460;2023-06-14T06:09:59;6.25;;;4.45;;
36321;SDS011;23564;48.290;11.460;2023-06-14T06:12:25;6.35;;;4.45;;
36321;SDS011;23564;48.290;11.460;2023-06-14T06:14:51;11.02;;;4.45;;
36321;SDS011;23564;48.290;11.460;2023-06-14T06:17:16;10.25;;;4.50;;
36321;SDS011;23564;48.290;11.460;2023-06-14T06:19:42;5.97;;;4.88;;
36321;SDS011;23564;48.290;11.460;2023-06-14T06:22:08;12.15;;;4.82;;
36321;SDS011;23564;48.290;11.460;2023-06-14T06:24:33;5.90;;;4.10;;
36321;SDS011;23564;48.290;11.460;2023-06-14T06:26:59;9.43;;;4.55;;
36321;SDS011;23564;48.290;11.460;2023-06-14T06:29:25;13.55;;;4.50;;
36321;SDS011;23564;48.290;11.460;2023-06-14T06:31:50;8.93;;;4.32;;
36321;SDS011;23564;48.290;11.460;2023-06-14T06:34:16;13.43;;;4.03;;
36321;SDS011;23564;48.290;11.460;2023-06-14T06:36:42;14.50;;;4.47;;
36321;SDS011;23564;48.290;11.460;2023-06-14T06:39:07;7.70;;;4.15;;
36321;SDS011;23564;48.290;11.460;2023-06-14T06:41:35;8.70;;;4.22;;
36321;SDS011;23564;48.290;11.460;2023-06-14T06:44:04;9.00;;;4.38;;
36321;SDS011;23564;48.290;11.460;2023-06-14T06:46:34;10.55;;;4.90;;
36321;SDS011;23564;48.290;11.460;2023-06-14T06:49:00;10.25;;;4.93;;
36321;SDS011;23564;48.290;11.460;2023-06-14T06:51:25;10.57;;;4.25;;
36321;SDS011;23564;48.290;11.460;2023-06-14T06:53:54;6.22;;;4.20;;
36321;SDS011;23564;48.290;11.460;2023-06-14T06:56:20;11.57;;;4.47;;
36321;SDS011;23564;48.290;11.460;2023-06-14T06:58:48;11.63;;;4.63;;
36321;SDS011;23564;48.290;11.460;2023-06-14T07:01:14;9.27;;;4.25;;
36321;SDS011;23564;48.290;11.460;2023-06-14T07:03:40;10.27;;;4.03;;
36321;SDS011;23564;48.290;11.460;2023-06-14T07:06:06;9.35;;;3.75;;
36321;SDS011;23564;48.290;11.460;2023-06-14T07:08:32;7.35;;;3.92;;
36321;SDS011;23564;48.290;11.460;2023-06-14T07:10:58;13.60;;;3.85;;
36321;SDS011;23564;48.290;11.460;2023-06-14T07:13:23;10.65;;;3.63;;
36321;SDS011;23564;48.290;11.460;2023-06-14T07:15:49;8.38;;;4.00;;
36321;SDS011;23564;48.290;11.460;2023-06-14T07:18:14;14.20;;;4.50;;
36321;SDS011;23564;48.290;11.460;2023-06-14T07:20:40;8.05;;;3.92;;
36321;SDS011;23564;48.290;11.460;2023-06-14T07:23:07;11.80;;;3.80;;
36321;SDS011;23564;48.290;11.460;2023-06-14T07:25:33;7.93;;;4.10;;
36321;SDS011;23564;48.290;11.460;2023-06-14T07:27:58;6.90;;;3.78;;
36321;SDS011;23564;48.290;11.460;2023-06-14T07:30:24;9.38;;;3.80;;
36321;SDS011;23564;48.290;11.460;2023-06-14T07:32:52;12.77;;;4.63;;
36321;SDS011;23564;48.290;11.460;2023-06-14T07:35:18;13.27;;;4.10;;
36321;SDS011;23564;48.290;11.460;2023-06-14T07:37:43;6.88;;;3.65;;
36321;SDS011;23564;48.290;11.460;2023-06-14T07:40:10;9.88;;;4.00;;
36321;SDS011;23564;48.290;11.460;2023-06-14T07:42:36;5.20;;;4.00;;
36321;SDS011;23564;48.290;11.460;2023-06-14T07:45:02;10.38;;;4.25;;
36321;SDS011;23564;48.290;11.460;2023-06-14T07:47:28;8.77;;;4.18;;
36321;SDS011;23564;48.290;11.460;2023-06-14T07:49:54;9.38;;;4.28;;
36321;SDS011;23564;48.290;11.460;2023-06-14T07:52:20;8.85;;;4.70;;
36321;SDS011;23564;48.290;11.460;2023-06-14T07:54:45;8.43;;;4.15;;
36321;SDS011;23564;48.290;11.460;2023-06-14T07:57:11;6.72;;;3.97;;
36321;SDS011;23564;48.290;11.460;2023-06-14T07:59:36;9.57;;;3.40;;
36321;SDS011;23564;48.290;11.460;2023-06-14T08:02:02;13.35;;;4.35;;
36321;SDS011;23564;48.290;11.460;2023-06-14T08:04:28;12.93;;;4.38;;
36321;SDS011;23564;48.290;11.460;2023-06-14T08:06:53;9.23;;;4.18;;
36321;SDS011;23564;48.290;11.460;2023-06-14T08:09:19;11.05;;;3.75;;
36321;SDS011;23564;48.290;11.460;2023-06-14T08:11:44;8.35;;;3.53;;
36321;SDS011;23564;48.290;11.460;2023-06-14T08:14:10;5.47;;;3.20;;
36321;SDS011;23564;48.290;11.460;2023-06-14T08:16:36;5.85;;;3.92;;
36321;SDS011;23564;48.290;11.460;2023-06-14T08:19:02;9.43;;;4.03;;
36321;SDS011;23564;48.290;11.460;2023-06-14T08:21:28;8.55;;;3.60;;
36321;SDS011;23564;48.290;11.460;2023-06-14T08:23:54;7.38;;;3.88;;
36321;SDS011;23564;48.290;11.460;2023-06-14T08:26:20;11.70;;;3.70;;
36321;SDS011;23564;48.290;11.460;2023-06-14T08:28:46;6.43;;;3.75;;
36321;SDS011;23564;48.290;11.460;2023-06-14T08:31:12;10.90;;;3.90;;
36321;SDS011;23564;48.290;11.460;2023-06-14T08:33:38;9.40;;;3.90;;
36321;SDS011;23564;48.290;11.460;2023-06-14T08:36:07;9.93;;;3.28;;
36321;SDS011;23564;48.290;11.460;2023-06-14T08:38:33;14.13;;;3.53;;
36321;SDS011;23564;48.290;11.460;2023-06-14T08:40:59;4.85;;;3.38;;
36321;SDS011;23564;48.290;11.460;2023-06-14T08:43:27;9.60;;;3.25;;
36321;SDS011;23564;48.290;11.460;2023-06-14T08:45:58;12.40;;;3.60;;
36321;SDS011;23564;48.290;11.460;2023-06-14T08:48:26;8.48;;;3.38;;
36321;SDS011;23564;48.290;11.460;2023-06-14T08:50:53;8.20;;;3.55;;
36321;SDS011;23564;48.290;11.460;2023-06-14T08:53:26;9.43;;;3.25;;
36321;SDS011;23564;48.290;11.460;2023-06-14T08:55:53;4.70;;;3.33;;
36321;SDS011;23564;48.290;11.460;2023-06-14T08:58:20;9.93;;;3.63;;
36321;SDS011;23564;48.290;11.460;2023-06-14T09:00:49;4.78;;;3.40;;
36321;SDS011;23564;48.290;11.460;2023-06-14T09:03:17;7.93;;;3.00;;
36321;SDS011;23564;48.290;11.460;2023-06-14T09:05:46;5.30;;;3.15;;
36321;SDS011;23564;48.290;11.460;2023-06-14T09:08:12;10.82;;;3.00;;
36321;SDS011;23564;48.290;11.460;2023-06-14T09:10:37;6.70;;;3.58;;
36321;SDS011;23564;48.290;11.460;2023-06-14T09:13:05;6.72;;;3.55;;
36321;SDS011;23564;48.290;11.460;2023-06-14T09:15:31;8.38;;;3.17;;
36321;SDS011;23564;48.290;11.460;2023-06-14T09:17:58;5.97;;;3.58;;
36321;SDS011;23564;48.290;11.460;2023-06-14T09:20:26;6.75;;;3.72;;
36321;SDS011;23564;48.290;11.460;2023-06-14T09:22:54;4.38;;;2.97;;
36321;SDS011;23564;48.290;11.460;2023-06-14T09:25:20;7.78;;;3.35;;
36321;SDS011;23564;48.290;11.460;2023-06-14T09:27:46;7.35;;;3.33;;
36321;SDS011;23564;48.290;11.460;2023-06-14T09:30:12;6.43;;;3.60;;
36321;SDS011;23564;48.290;11.460;2023-06-14T09:32:41;6.15;;;2.85;;
36321;SDS011;23564;48.290;11.460;2023-06-14T09:35:07;9.27;;;3.08;;
36321;SDS011;23564;48.290;11.460;2023-06-14T09:37:34;6.28;;;3.42;;
36321;SDS011;23564;48.290;11.460;2023-06-14T09:40:01;10.60;;;3.35;;
36321;SDS011;23564;48.290;11.460;2023-06-14T09:42:28;8.05;;;3.13;;
36321;SDS011;23564;48.290;11.460;2023-06-14T09:44:54;9.88;;;3.35;;
36321;SDS011;23564;48.290;11.460;2023-06-14T09:47:21;6.13;;;3.05;;
36321;SDS011;23564;48.290;11.460;2023-06-14T09:49:48;10.10;;;3.40;;
36321;SDS011;23564;48.290;11.460;2023-06-14T09:52:17;8.15;;;2.92;;
36321;SDS011;23564;48.290;11.460;2023-06-14T09:54:44;8.20;;;2.90;;
36321;SDS011;23564;48.290;11.460;2023-06-14T09:57:14;4.03;;;2.90;;
36321;SDS011;23564;48.290;11.460;2023-06-14T09:59:42;4.45;;;3.05;;
36321;SDS011;23564;48.290;11.460;2023-06-14T10:02:22;5.22;;;2.75;;
36321;SDS011;23564;48.290;11.460;2023-06-14T10:05:12;4.93;;;2.88;;
36321;SDS011;23564;48.290;11.460;2023-06-14T10:08:00;9.60;;;3.35;;
36321;SDS011;23564;48.290;11.460;2023-06-14T10:12:55;5.30;;;3.45;;
36321;SDS011;23564;48.290;11.460;2023-06-14T10:15:32;6.47;;;3.17;;
36321;SDS011;23564;48.290;11.460;2023-06-14T10:18:08;4.85;;;3.17;;
36321;SDS011;23564;48.290;11.460;2023-06-14T10:20:46;6.15;;;3.00;;
36321;SDS011;23564;48.290;11.460;2023-06-14T10:23:41;10.02;;;3.47;;
36321;SDS011;23564;48.290;11.460;2023-06-14T10:26:13;5.57;;;3.40;;
36321;SDS011;23564;48.290;11.460;2023-06-14T10:28:54;8.10;;;3.22;;
36321;SDS011;23564;48.290;11.460;2023-06-14T10:31:41;7.85;;;2.83;;
36321;SDS011;23564;48.290;11.460;2023-06-14T10:34:12;5.32;;;3.03;;
36321;SDS011;23564;48.290;11.460;2023-06-14T10:39:51;3.95;;;2.92;;
36321;SDS011;23564;48.290;11.460;2023-06-14T10:42:18;4.85;;;2.83;;
36321;SDS011;23564;48.290;11.460;2023-06-14T10:44:50;4.03;;;2.88;;
36321;SDS011;23564;48.290;11.460;2023-06-14T10:47:20;4.10;;;3.08;;
36321;SDS011;23564;48.290;11.460;2023-06-14T10:50:03;7.43;;;3.03;;
36321;SDS011;23564;48.290;11.460;2023-06-14T10:52:34;4.72;;;2.90;;
36321;SDS011;23564;48.290;11.460;2023-06-14T10:57:40;7.68;;;3.63;;
36321;SDS011;23564;48.290;11.460;2023-06-14T11:00:06;6.30;;;3.10;;
36321;SDS011;23564;48.290;11.460;2023-06-14T11:05:41;6.65;;;3.45;;
36321;SDS011;23564;48.290;11.460;2023-06-14T11:11:01;6.63;;;2.92;;
36321;SDS011;23564;48.290;11.460;2023-06-14T11:13:31;5.93;;;3.67;;
36321;SDS011;23564;48.290;11.460;2023-06-14T11:15:57;6.13;;;3.28;;
36321;SDS011;23564;48.290;11.460;2023-06-14T11:18:24;7.72;;;3.35;;
36321;SDS011;23564;48.290;11.460;2023-06-14T11:20:51;9.68;;;2.97;;
36321;SDS011;23564;48.290;11.460;2023-06-14T11:23:16;7.13;;;3.60;;
36321;SDS011;23564;48.290;11.460;2023-06-14T11:25:42;6.45;;;3.60;;
36321;SDS011;23564;48.290;11.460;2023-06-14T11:28:07;10.55;;;3.35;;
36321;SDS011;23564;48.290;11.460;2023-06-14T11:30:33;6.05;;;3.08;;
36321;SDS011;23564;48.290;11.460;2023-06-14T11:32:59;7.82;;;3.20;;
36321;SDS011;23564;48.290;11.460;2023-06-14T11:35:25;11.82;;;3.03;;
36321;SDS011;23564;48.290;11.460;2023-06-14T11:37:55;10.57;;;3.72;;
36321;SDS011;23564;48.290;11.460;2023-06-14T11:40:25;5.57;;;3.78;;
36321;SDS011;23564;48.290;11.460;2023-06-14T11:43:01;11.50;;;4.03;;
36321;SDS011;23564;48.290;11.460;2023-06-14T11:45:27;8.73;;;3.35;;
36321;SDS011;23564;48.290;11.460;2023-06-14T11:47:54;6.20;;;3.28;;
36321;SDS011;23564;48.290;11.460;2023-06-14T11:50:21;7.95;;;3.30;;
36321;SDS011;23564;48.290;11.460;2023-06-14T11:52:57;7.38;;;3.67;;
36321;SDS011;23564;48.290;11.460;2023-06-14T11:55:28;9.80;;;3.70;;
36321;SDS011;23564;48.290;11.460;2023-06-14T11:57:54;8.63;;;3.00;;
36321;SDS011;23564;48.290;11.460;2023-06-14T12:00:23;4.53;;;3.15;;
36321;SDS011;23564;48.290;11.460;2023-06-14T12:02:54;6.80;;;3.42;;
36321;SDS011;23564;48.290;11.460;2023-06-14T12:05:23;5.57;;;2.80;;
36321;SDS011;23564;48.290;11.460;2023-06-14T12:07:50;4.25;;;2.97;;
36321;SDS011;23564;48.290;11.460;2023-06-14T12:10:24;5.45;;;2.90;;
36321;SDS011;23564;48.290;11.460;2023-06-14T12:12:49;7.55;;;3.65;;
36321;SDS011;23564;48.290;11.460;2023-06-14T12:15:15;7.47;;;3.22;;
36321;SDS011;23564;48.290;11.460;2023-06-14T12:17:41;5.97;;;3.22;;
36321;SDS011;23564;48.290;11.460;2023-06-14T12:22:36;6.30;;;3.30;;
36321;SDS011;23564;48.290;11.460;2023-06-14T12:25:03;10.00;;;3.33;;
36321;SDS011;23564;48.290;11.460;2023-06-14T12:27:29;7.75;;;3.60;;
36321;SDS011;23564;48.290;11.460;2023-06-14T12:29:59;4.40;;;3.17;;
36321;SDS011;23564;48.290;11.460;2023-06-14T12:32:25;7.70;;;3.38;;
36321;SDS011;23564;48.290;11.460;2023-06-14T12:34:51;9.63;;;3.35;;
36321;SDS011;23564;48.290;11.460;2023-06-14T12:37:16;6.45;;;3.50;;
36321;SDS011;23564;48.290;11.460;2023-06-14T12:39:42;4.10;;;3.17;;
36321;SDS011;23564;48.290;11.460;2023-06-14T12:42:07;3.95;;;2.95;;
36321;SDS011;23564;48.290;11.460;2023-06-14T12:44:33;8.00;;;3.28;;
36321;SDS011;23564;48.290;11.460;2023-06-14T12:47:00;7.03;;;3.85;;
36321;SDS011;23564;48.290;11.460;2023-06-14T12:49:26;4.85;;;3.15;;
36321;SDS011;23564;48.290;11.460;2023-06-14T12:51:52;6.15;;;3.35;;
36321;SDS011;23564;48.290;11.460;2023-06-14T12:54:17;9.63;;;3.33;;
36321;SDS011;23564;48.290;11.460;2023-06-14T12:56:43;5.95;;;3.38;;
36321;SDS011;23564;48.290;11.460;2023-06-14T12:59:09;7.38;;;3.65;;
36321;SDS011;23564;48.290;11.460;2023-06-14T13:04:03;5.65;;;3.58;;
36321;SDS011;23564;48.290;11.460;2023-06-14T13:06:28;9.05;;;3.65;;
36321;SDS011;23564;48.290;11.460;2023-06-14T13:08:56;6.93;;;3.13;;
36321;SDS011;23564;48.290;11.460;2023-06-14T13:11:22;5.63;;;3.17;;
36321;SDS011;23564;48.290;11.460;2023-06-14T13:13:48;8.68;;;3.35;;
36321;SDS011;23564;48.290;11.460;2023-06-14T13:16:13;6.57;;;3.30;;
36321;SDS011;23564;48.290;11.460;2023-06-14T13:18:39;9.73;;;3.28;;
36321;SDS011;23564;48.290;11.460;2023-06-14T13:21:05;9.05;;;3.30;;
36321;SDS011;23564;48.290;11.460;2023-06-14T13:23:30;7.57;;;3.47;;
36321;SDS011;23564;48.290;11.460;2023-06-14T13:25:56;7.03;;;3.17;;
36321;SDS011;23564;48.290;11.460;2023-06-14T13:28:21;4.70;;;3.28;;
36321;SDS011;23564;48.290;11.460;2023-06-14T13:30:47;12.20;;;3.42;;
36321;SDS011;23564;48.290;11.460;2023-06-14T13:33:13;8.70;;;3.33;;
36321;SDS011;23564;48.290;11.460;2023-06-14T13:35:39;5.43;;;3.20;;
36321;SDS011;23564;48.290;11.460;2023-06-14T13:38:04;4.75;;;2.90;;
36321;SDS011;23564;48.290;11.460;2023-06-14T13:40:30;6.57;;;3.40;;
36321;SDS011;23564;48.290;11.460;2023-06-14T13:42:55;4.30;;;2.88;;
36321;SDS011;23564;48.290;11.460;2023-06-14T13:45:21;5.38;;;2.90;;
36321;SDS011;23564;48.290;11.460;2023-06-14T13:47:47;4.63;;;3.10;;
36321;SDS011;23564;48.290;11.460;2023-06-14T13:50:13;4.93;;;2.97;;
36321;SDS011;23564;48.290;11.460;2023-06-14T13:52:39;5.78;;;3.15;;
36321;SDS011;23564;48.290;11.460;2023-06-14T13:55:05;6.30;;;3.03;;
36321;SDS011;23564;48.290;11.460;2023-06-14T13:57:30;5.72;;;3.00;;
36321;SDS011;23564;48.290;11.460;2023-06-14T13:59:56;7.57;;;3.58;;
36321;SDS011;23564;48.290;11.460;2023-06-14T14:02:26;8.07;;;3.00;;
36321;SDS011;23564;48.290;11.460;2023-06-14T14:04:53;6.13;;;3.30;;
36321;SDS011;23564;48.290;11.460;2023-06-14T14:07:19;7.55;;;2.97;;
36321;SDS011;23564;48.290;11.460;2023-06-14T14:09:45;5.93;;;2.95;;
36321;SDS011;23564;48.290;11.460;2023-06-14T14:12:12;5.93;;;3.42;;
36321;SDS011;23564;48.290;11.460;2023-06-14T14:14:39;5.85;;;3.75;;
36321;SDS011;23564;48.290;11.460;2023-06-14T14:17:05;7.25;;;3.00;;
36321;SDS011;23564;48.290;11.460;2023-06-14T14:19:31;23.65;;;4.47;;
36321;SDS011;23564;48.290;11.460;2023-06-14T14:21:57;5.97;;;2.53;;
36321;SDS011;23564;48.290;11.460;2023-06-14T14:24:23;6.72;;;3.20;;
36321;SDS011;23564;48.290;11.460;2023-06-14T14:26:49;5.13;;;3.30;;
36321;SDS011;23564;48.290;11.460;2023-06-14T14:29:15;5.28;;;3.38;;
36321;SDS011;23564;48.290;11.460;2023-06-14T14:31:42;7.28;;;2.97;;
36321;SDS011;23564;48.290;11.460;2023-06-14T14:34:07;7.75;;;3.03;;
36321;SDS011;23564;48.290;11.460;2023-06-14T14:36:33;8.75;;;3.10;;
36321;SDS011;23564;48.290;11.460;2023-06-14T14:39:01;4.95;;;2.70;;
36321;SDS011;23564;48.290;11.460;2023-06-14T14:41:27;4.88;;;3.08;;
36321;SDS011;23564;48.290;11.460;2023-06-14T14:43:52;5.95;;;3.08;;
36321;SDS011;23564;48.290;11.460;2023-06-14T14:46:18;5.30;;;2.95;;
36321;SDS011;23564;48.290;11.460;2023-06-14T14:48:44;6.68;;;2.90;;